sensor_id;sensor_type;location;lat;lon;timestamp;P1;durP1;ratioP1;P2;durP2;ratioP2
62554;SDS011;48610;52.144;8.624;2022-07-10T00:02:58;11.52;;;1.98;;
62554;SDS011;48610;52.144;8.624;2022-07-10T00:05:59;7.93;;;1.60;;
62554;SDS011;48610;52.144;8.624;2022-07-10T00:08:59;8.70;;;2.05;;
62554;SDS011;48610;52.144;8.624;2022-07-10T00:12:00;6.88;;;1.90;;
62554;SDS011;48610;52.144;8.624;2022-07-10T00:15:01;10.00;;;2.20;;
62554;SDS011;48610;52.144;8.624;2022-07-10T00:18:03;8.45;;;1.85;;
62554;SDS011;48610;52.144;8.624;2022-07-10T00:21:04;8.55;;;1.80;;
62554;SDS011;48610;52.144;8.624;2022-07-10T00:24:06;5.18;;;1.85;;
62554;SDS011;48610;52.144;8.624;2022-07-10T00:27:06;7.47;;;1.80;;
62554;SDS011;48610;52.144;8.624;2022-07-10T00:30:08;6.18;;;2.20;;
62554;SDS011;48610;52.144;8.624;2022-07-10T00:33:09;8.15;;;2.50;;
62554;SDS011;48610;52.144;8.624;2022-07-10T00:36:10;3.97;;;1.40;;
62554;SDS011;48610;52.144;8.624;2022-07-10T00:39:10;6.15;;;1.38;;
62554;SDS011;48610;52.144;8.624;2022-07-10T00:42:12;7.90;;;2.00;;
62554;SDS011;48610;52.144;8.624;2022-07-10T00:45:13;8.60;;;1.92;;
62554;SDS011;48610;52.144;8.624;2022-07-10T00:48:14;6.63;;;1.70;;
62554;SDS011;48610;52.144;8.624;2022-07-10T00:51:15;3.85;;;1.55;;
62554;SDS011;48610;52.144;8.624;2022-07-10T00:54:17;7.05;;;2.40;;
62554;SDS011;48610;52.144;8.624;2022-07-10T00:57:18;11.07;;;2.03;;
62554;SDS011;48610;52.144;8.624;2022-07-10T01:00:19;5.40;;;2.30;;
62554;SDS011;48610;52.144;8.624;2022-07-10T01:03:20;5.80;;;1.88;;
62554;SDS011;48610;52.144;8.624;2022-07-10T01:06:20;7.72;;;1.67;;
62554;SDS011;48610;52.144;8.624;2022-07-10T01:09:21;11.65;;;3.28;;
62554;SDS011;48610;52.144;8.624;2022-07-10T01:12:21;8.23;;;1.80;;
62554;SDS011;48610;52.144;8.624;2022-07-10T01:15:22;10.07;;;2.42;;
62554;SDS011;48610;52.144;8.624;2022-07-10T01:18:23;7.55;;;1.95;;
62554;SDS011;48610;52.144;8.624;2022-07-10T01:21:29;6.00;;;1.92;;
62554;SDS011;48610;52.144;8.624;2022-07-10T01:24:31;5.97;;;1.92;;
62554;SDS011;48610;52.144;8.624;2022-07-10T01:27:31;7.80;;;1.55;;
62554;SDS011;48610;52.144;8.624;2022-07-10T01:30:32;7.90;;;2.10;;
62554;SDS011;48610;52.144;8.624;2022-07-10T01:33:33;8.90;;;2.28;;
62554;SDS011;48610;52.144;8.624;2022-07-10T01:36:33;14.13;;;2.50;;
62554;SDS011;48610;52.144;8.624;2022-07-10T01:39:35;7.97;;;2.17;;
62554;SDS011;48610;52.144;8.624;2022-07-10T01:42:35;4.78;;;1.60;;
62554;SDS011;48610;52.144;8.624;2022-07-10T01:45:37;10.88;;;2.30;;
62554;SDS011;48610;52.144;8.624;2022-07-10T01:48:38;4.13;;;1.58;;
62554;SDS011;48610;52.144;8.624;2022-07-10T01:51:39;11.40;;;2.67;;
62554;SDS011;48610;52.144;8.624;2022-07-10T01:54:39;9.70;;;1.92;;
62554;SDS011;48610;52.144;8.624;2022-07-10T01:57:40;14.00;;;2.45;;
62554;SDS011;48610;52.144;8.624;2022-07-10T02:00:40;9.85;;;2.15;;
62554;SDS011;48610;52.144;8.624;2022-07-10T02:03:41;6.68;;;2.28;;
62554;SDS011;48610;52.144;8.624;2022-07-10T02:07:00;11.75;;;2.45;;
62554;SDS011;48610;52.144;8.624;2022-07-10T02:10:01;10.23;;;1.98;;
62554;SDS011;48610;52.144;8.624;2022-07-10T02:13:01;4.88;;;1.95;;
62554;SDS011;48610;52.144;8.624;2022-07-10T02:16:02;9.35;;;2.35;;
62554;SDS011;48610;52.144;8.624;2022-07-10T02:19:03;5.22;;;1.77;;
62554;SDS011;48610;52.144;8.624;2022-07-10T02:22:04;9.07;;;2.55;;
62554;SDS011;48610;52.144;8.624;2022-07-10T02:25:05;9.80;;;2.13;;
62554;SDS011;48610;52.144;8.624;2022-07-10T02:28:07;8.90;;;2.15;;
62554;SDS011;48610;52.144;8.624;2022-07-10T02:31:08;15.38;;;2.20;;
62554;SDS011;48610;52.144;8.624;2022-07-10T02:34:09;12.85;;;2.28;;
62554;SDS011;48610;52.144;8.624;2022-07-10T02:37:11;10.85;;;1.90;;
62554;SDS011;48610;52.144;8.624;2022-07-10T02:40:12;11.98;;;2.40;;
62554;SDS011;48610;52.144;8.624;2022-07-10T02:43:12;8.57;;;1.80;;
62554;SDS011;48610;52.144;8.624;2022-07-10T02:46:13;9.25;;;2.00;;
62554;SDS011;48610;52.144;8.624;2022-07-10T02:49:13;10.48;;;2.17;;
62554;SDS011;48610;52.144;8.624;2022-07-10T02:52:14;11.52;;;2.58;;
62554;SDS011;48610;52.144;8.624;2022-07-10T02:55:14;9.88;;;2.17;;
62554;SDS011;48610;52.144;8.624;2022-07-10T02:58:15;12.48;;;2.95;;
62554;SDS011;48610;52.144;8.624;2022-07-10T03:01:17;6.65;;;2.08;;
62554;SDS011;48610;52.144;8.624;2022-07-10T03:04:18;9.23;;;2.40;;
62554;SDS011;48610;52.144;8.624;2022-07-10T03:07:18;5.93;;;2.10;;
62554;SDS011;48610;52.144;8.624;2022-07-10T03:10:19;15.63;;;2.60;;
62554;SDS011;48610;52.144;8.624;2022-07-10T03:13:20;9.15;;;2.50;;
62554;SDS011;48610;52.144;8.624;2022-07-10T03:16:21;10.52;;;2.58;;
62554;SDS011;48610;52.144;8.624;2022-07-10T03:19:21;5.75;;;2.10;;
62554;SDS011;48610;52.144;8.624;2022-07-10T03:22:22;11.40;;;2.05;;
62554;SDS011;48610;52.144;8.624;2022-07-10T03:25:22;14.15;;;2.53;;
62554;SDS011;48610;52.144;8.624;2022-07-10T03:28:23;16.15;;;2.50;;
62554;SDS011;48610;52.144;8.624;2022-07-10T03:31:23;7.47;;;2.38;;
62554;SDS011;48610;52.144;8.624;2022-07-10T03:34:24;9.93;;;2.00;;
62554;SDS011;48610;52.144;8.624;2022-07-10T03:37:25;8.40;;;2.22;;
62554;SDS011;48610;52.144;8.624;2022-07-10T03:40:25;7.28;;;1.88;;
62554;SDS011;48610;52.144;8.624;2022-07-10T03:43:27;7.50;;;2.05;;
62554;SDS011;48610;52.144;8.624;2022-07-10T03:46:27;4.05;;;1.70;;
62554;SDS011;48610;52.144;8.624;2022-07-10T03:49:28;9.10;;;2.28;;
62554;SDS011;48610;52.144;8.624;2022-07-10T03:52:28;8.35;;;2.15;;
62554;SDS011;48610;52.144;8.624;2022-07-10T03:55:29;11.70;;;2.40;;
62554;SDS011;48610;52.144;8.624;2022-07-10T03:58:29;9.85;;;1.98;;
62554;SDS011;48610;52.144;8.624;2022-07-10T04:01:30;9.52;;;2.47;;
62554;SDS011;48610;52.144;8.624;2022-07-10T04:04:30;7.32;;;2.10;;
62554;SDS011;48610;52.144;8.624;2022-07-10T04:07:31;10.63;;;1.83;;
62554;SDS011;48610;52.144;8.624;2022-07-10T04:10:32;9.07;;;2.08;;
62554;SDS011;48610;52.144;8.624;2022-07-10T04:13:32;13.07;;;2.30;;
62554;SDS011;48610;52.144;8.624;2022-07-10T04:16:33;10.85;;;2.17;;
62554;SDS011;48610;52.144;8.624;2022-07-10T04:19:33;14.40;;;2.20;;
62554;SDS011;48610;52.144;8.624;2022-07-10T04:22:34;6.97;;;1.67;;
62554;SDS011;48610;52.144;8.624;2022-07-10T04:25:35;8.38;;;2.30;;
62554;SDS011;48610;52.144;8.624;2022-07-10T04:28:35;8.68;;;2.15;;
62554;SDS011;48610;52.144;8.624;2022-07-10T04:31:36;12.95;;;2.20;;
62554;SDS011;48610;52.144;8.624;2022-07-10T04:34:37;16.25;;;2.92;;
62554;SDS011;48610;52.144;8.624;2022-07-10T04:37:38;5.43;;;1.67;;
62554;SDS011;48610;52.144;8.624;2022-07-10T04:40:38;14.13;;;3.15;;
62554;SDS011;48610;52.144;8.624;2022-07-10T04:43:39;6.82;;;2.38;;
62554;SDS011;48610;52.144;8.624;2022-07-10T04:46:40;9.57;;;2.10;;
62554;SDS011;48610;52.144;8.624;2022-07-10T04:49:40;10.13;;;2.20;;
62554;SDS011;48610;52.144;8.624;2022-07-10T04:52:41;7.07;;;2.08;;
62554;SDS011;48610;52.144;8.624;2022-07-10T04:55:41;7.20;;;2.40;;
62554;SDS011;48610;52.144;8.624;2022-07-10T04:58:42;6.05;;;2.08;;
62554;SDS011;48610;52.144;8.624;2022-07-10T05:01:42;7.18;;;2.47;;
62554;SDS011;48610;52.144;8.624;2022-07-10T05:04:43;8.52;;;2.20;;
62554;SDS011;48610;52.144;8.624;2022-07-10T05:07:44;15.60;;;2.15;;
62554;SDS011;48610;52.144;8.624;2022-07-10T05:10:44;9.98;;;2.33;;
62554;SDS011;48610;52.144;8.624;2022-07-10T05:13:45;5.53;;;1.80;;
62554;SDS011;48610;52.144;8.624;2022-07-10T05:16:48;7.10;;;1.98;;
62554;SDS011;48610;52.144;8.624;2022-07-10T05:19:48;9.07;;;2.55;;
62554;SDS011;48610;52.144;8.624;2022-07-10T05:22:51;7.90;;;1.92;;
62554;SDS011;48610;52.144;8.624;2022-07-10T05:25:52;11.82;;;2.00;;
62554;SDS011;48610;52.144;8.624;2022-07-10T05:28:52;8.98;;;2.42;;
62554;SDS011;48610;52.144;8.624;2022-07-10T05:31:53;7.03;;;1.67;;
62554;SDS011;48610;52.144;8.624;2022-07-10T05:34:54;8.63;;;2.00;;
62554;SDS011;48610;52.144;8.624;2022-07-10T05:37:58;7.38;;;1.75;;
62554;SDS011;48610;52.144;8.624;2022-07-10T05:40:59;10.35;;;2.10;;
62554;SDS011;48610;52.144;8.624;2022-07-10T05:43:59;11.98;;;2.05;;
62554;SDS011;48610;52.144;8.624;2022-07-10T05:47:00;5.50;;;1.83;;
62554;SDS011;48610;52.144;8.624;2022-07-10T05:50:00;11.13;;;2.33;;
62554;SDS011;48610;52.144;8.624;2022-07-10T05:53:01;7.40;;;2.60;;
62554;SDS011;48610;52.144;8.624;2022-07-10T05:56:02;8.00;;;2.30;;
62554;SDS011;48610;52.144;8.624;2022-07-10T05:59:02;7.13;;;2.88;;
62554;SDS011;48610;52.144;8.624;2022-07-10T06:02:03;5.85;;;2.05;;
62554;SDS011;48610;52.144;8.624;2022-07-10T06:05:04;8.38;;;2.22;;
62554;SDS011;48610;52.144;8.624;2022-07-10T06:08:06;10.10;;;2.03;;
62554;SDS011;48610;52.144;8.624;2022-07-10T06:11:06;8.52;;;2.30;;
62554;SDS011;48610;52.144;8.624;2022-07-10T06:14:07;6.00;;;1.60;;
62554;SDS011;48610;52.144;8.624;2022-07-10T06:17:07;10.07;;;2.40;;
62554;SDS011;48610;52.144;8.624;2022-07-10T06:20:08;16.65;;;2.15;;
62554;SDS011;48610;52.144;8.624;2022-07-10T06:23:09;12.00;;;2.10;;
62554;SDS011;48610;52.144;8.624;2022-07-10T06:26:10;8.13;;;1.70;;
62554;SDS011;48610;52.144;8.624;2022-07-10T06:29:10;9.05;;;2.20;;
62554;SDS011;48610;52.144;8.624;2022-07-10T06:32:11;7.82;;;1.80;;
62554;SDS011;48610;52.144;8.624;2022-07-10T06:35:12;6.43;;;1.85;;
62554;SDS011;48610;52.144;8.624;2022-07-10T06:38:12;5.35;;;2.15;;
62554;SDS011;48610;52.144;8.624;2022-07-10T06:41:13;8.02;;;2.20;;
62554;SDS011;48610;52.144;8.624;2022-07-10T06:44:13;8.23;;;2.75;;
62554;SDS011;48610;52.144;8.624;2022-07-10T06:47:15;8.00;;;2.20;;
62554;SDS011;48610;52.144;8.624;2022-07-10T06:50:35;7.20;;;1.52;;
62554;SDS011;48610;52.144;8.624;2022-07-10T06:53:37;13.77;;;2.17;;
62554;SDS011;48610;52.144;8.624;2022-07-10T06:56:38;3.97;;;2.03;;
62554;SDS011;48610;52.144;8.624;2022-07-10T06:59:38;11.40;;;2.20;;
62554;SDS011;48610;52.144;8.624;2022-07-10T07:02:39;11.55;;;2.28;;
62554;SDS011;48610;52.144;8.624;2022-07-10T07:05:40;7.68;;;2.10;;
62554;SDS011;48610;52.144;8.624;2022-07-10T07:08:40;10.02;;;1.98;;
62554;SDS011;48610;52.144;8.624;2022-07-10T07:11:42;8.73;;;2.50;;
62554;SDS011;48610;52.144;8.624;2022-07-10T07:14:43;8.20;;;2.15;;
62554;SDS011;48610;52.144;8.624;2022-07-10T07:17:44;8.52;;;2.22;;
62554;SDS011;48610;52.144;8.624;2022-07-10T07:21:07;9.63;;;2.38;;
62554;SDS011;48610;52.144;8.624;2022-07-10T07:24:28;11.05;;;2.88;;
62554;SDS011;48610;52.144;8.624;2022-07-10T07:27:29;12.13;;;2.03;;
62554;SDS011;48610;52.144;8.624;2022-07-10T07:30:29;8.70;;;2.40;;
62554;SDS011;48610;52.144;8.624;2022-07-10T07:33:30;11.68;;;2.53;;
62554;SDS011;48610;52.144;8.624;2022-07-10T07:36:31;13.40;;;2.72;;
62554;SDS011;48610;52.144;8.624;2022-07-10T07:39:31;7.55;;;2.78;;
62554;SDS011;48610;52.144;8.624;2022-07-10T07:42:33;7.40;;;2.10;;
62554;SDS011;48610;52.144;8.624;2022-07-10T07:45:34;8.60;;;2.30;;
62554;SDS011;48610;52.144;8.624;2022-07-10T07:48:35;12.63;;;2.50;;
62554;SDS011;48610;52.144;8.624;2022-07-10T07:51:36;7.55;;;2.10;;
62554;SDS011;48610;52.144;8.624;2022-07-10T07:54:37;8.73;;;2.13;;
62554;SDS011;48610;52.144;8.624;2022-07-10T07:57:37;8.95;;;2.03;;
62554;SDS011;48610;52.144;8.624;2022-07-10T08:00:38;10.38;;;2.30;;
62554;SDS011;48610;52.144;8.624;2022-07-10T08:03:39;11.57;;;2.70;;
62554;SDS011;48610;52.144;8.624;2022-07-10T08:06:39;9.25;;;2.38;;
62554;SDS011;48610;52.144;8.624;2022-07-10T08:09:40;8.07;;;2.17;;
62554;SDS011;48610;52.144;8.624;2022-07-10T08:12:41;6.68;;;1.67;;
62554;SDS011;48610;52.144;8.624;2022-07-10T08:15:43;9.13;;;1.92;;
62554;SDS011;48610;52.144;8.624;2022-07-10T08:18:43;5.25;;;1.85;;
62554;SDS011;48610;52.144;8.624;2022-07-10T08:21:44;8.35;;;2.70;;
62554;SDS011;48610;52.144;8.624;2022-07-10T08:24:45;9.32;;;2.15;;
62554;SDS011;48610;52.144;8.624;2022-07-10T08:27:45;11.20;;;2.63;;
62554;SDS011;48610;52.144;8.624;2022-07-10T08:30:47;5.07;;;1.77;;
62554;SDS011;48610;52.144;8.624;2022-07-10T08:33:48;12.13;;;2.28;;
62554;SDS011;48610;52.144;8.624;2022-07-10T08:36:49;8.60;;;2.25;;
62554;SDS011;48610;52.144;8.624;2022-07-10T08:39:49;10.77;;;2.17;;
62554;SDS011;48610;52.144;8.624;2022-07-10T08:42:50;10.63;;;2.58;;
62554;SDS011;48610;52.144;8.624;2022-07-10T08:45:51;5.18;;;1.88;;
62554;SDS011;48610;52.144;8.624;2022-07-10T08:48:55;5.05;;;2.00;;
62554;SDS011;48610;52.144;8.624;2022-07-10T08:55:04;10.38;;;1.83;;
62554;SDS011;48610;52.144;8.624;2022-07-10T08:58:05;7.57;;;1.70;;
62554;SDS011;48610;52.144;8.624;2022-07-10T09:01:08;7.70;;;1.73;;
62554;SDS011;48610;52.144;8.624;2022-07-10T09:04:16;8.93;;;2.08;;
62554;SDS011;48610;52.144;8.624;2022-07-10T09:07:18;5.72;;;1.50;;
62554;SDS011;48610;52.144;8.624;2022-07-10T09:10:21;7.32;;;2.08;;
62554;SDS011;48610;52.144;8.624;2022-07-10T09:13:25;5.03;;;1.40;;
62554;SDS011;48610;52.144;8.624;2022-07-10T09:16:27;7.28;;;1.77;;
62554;SDS011;48610;52.144;8.624;2022-07-10T09:19:32;4.85;;;1.60;;
62554;SDS011;48610;52.144;8.624;2022-07-10T09:22:34;5.40;;;1.80;;
62554;SDS011;48610;52.144;8.624;2022-07-10T09:25:35;7.72;;;2.03;;
62554;SDS011;48610;52.144;8.624;2022-07-10T09:28:36;8.85;;;2.58;;
62554;SDS011;48610;52.144;8.624;2022-07-10T09:31:52;6.72;;;1.73;;
62554;SDS011;48610;52.144;8.624;2022-07-10T09:34:54;4.70;;;1.73;;
62554;SDS011;48610;52.144;8.624;2022-07-10T09:38:13;4.47;;;1.70;;
62554;SDS011;48610;52.144;8.624;2022-07-10T09:41:18;5.13;;;1.90;;
62554;SDS011;48610;52.144;8.624;2022-07-10T09:44:21;5.40;;;1.55;;
62554;SDS011;48610;52.144;8.624;2022-07-10T09:47:22;8.45;;;1.83;;
62554;SDS011;48610;52.144;8.624;2022-07-10T09:50:27;5.95;;;1.77;;
62554;SDS011;48610;52.144;8.624;2022-07-10T09:53:29;5.63;;;1.92;;
62554;SDS011;48610;52.144;8.624;2022-07-10T09:56:42;8.10;;;1.90;;
62554;SDS011;48610;52.144;8.624;2022-07-10T09:59:44;6.25;;;2.03;;
62554;SDS011;48610;52.144;8.624;2022-07-10T10:02:45;6.65;;;1.80;;
62554;SDS011;48610;52.144;8.624;2022-07-10T10:05:54;8.57;;;1.98;;
62554;SDS011;48610;52.144;8.624;2022-07-10T10:08:56;9.80;;;2.30;;
62554;SDS011;48610;52.144;8.624;2022-07-10T10:12:05;9.45;;;2.10;;
62554;SDS011;48610;52.144;8.624;2022-07-10T10:15:11;5.40;;;2.05;;
62554;SDS011;48610;52.144;8.624;2022-07-10T10:18:12;6.32;;;2.10;;
62554;SDS011;48610;52.144;8.624;2022-07-10T10:21:15;5.10;;;1.40;;
62554;SDS011;48610;52.144;8.624;2022-07-10T10:24:15;6.35;;;2.17;;
62554;SDS011;48610;52.144;8.624;2022-07-10T10:27:17;6.50;;;2.20;;
62554;SDS011;48610;52.144;8.624;2022-07-10T10:30:18;3.88;;;1.40;;
62554;SDS011;48610;52.144;8.624;2022-07-10T10:39:54;6.70;;;2.22;;
62554;SDS011;48610;52.144;8.624;2022-07-10T10:42:55;8.23;;;2.45;;
62554;SDS011;48610;52.144;8.624;2022-07-10T10:45:56;4.50;;;1.67;;
62554;SDS011;48610;52.144;8.624;2022-07-10T10:49:06;6.68;;;2.10;;
62554;SDS011;48610;52.144;8.624;2022-07-10T10:52:10;8.73;;;2.30;;
62554;SDS011;48610;52.144;8.624;2022-07-10T10:55:14;11.18;;;2.72;;
62554;SDS011;48610;52.144;8.624;2022-07-10T10:58:15;7.68;;;2.38;;
62554;SDS011;48610;52.144;8.624;2022-07-10T11:01:24;9.77;;;1.88;;
62554;SDS011;48610;52.144;8.624;2022-07-10T11:04:26;4.65;;;1.95;;
62554;SDS011;48610;52.144;8.624;2022-07-10T11:11:45;6.20;;;1.90;;
62554;SDS011;48610;52.144;8.624;2022-07-10T11:14:30;7.82;;;1.95;;
62554;SDS011;48610;52.144;8.624;2022-07-10T11:17:36;6.88;;;1.48;;
62554;SDS011;48610;52.144;8.624;2022-07-10T11:20:38;3.97;;;1.65;;
62554;SDS011;48610;52.144;8.624;2022-07-10T11:27:06;3.40;;;1.42;;
62554;SDS011;48610;52.144;8.624;2022-07-10T11:30:19;5.80;;;1.75;;
62554;SDS011;48610;52.144;8.624;2022-07-10T11:33:20;7.55;;;1.83;;
62554;SDS011;48610;52.144;8.624;2022-07-10T11:39:26;5.45;;;1.48;;
62554;SDS011;48610;52.144;8.624;2022-07-10T11:42:26;3.65;;;1.33;;
62554;SDS011;48610;52.144;8.624;2022-07-10T11:45:28;7.82;;;1.55;;
62554;SDS011;48610;52.144;8.624;2022-07-10T11:48:30;5.25;;;0.90;;
62554;SDS011;48610;52.144;8.624;2022-07-10T11:51:38;3.80;;;1.40;;
62554;SDS011;48610;52.144;8.624;2022-07-10T11:54:39;1.35;;;0.85;;
62554;SDS011;48610;52.144;8.624;2022-07-10T11:57:42;4.53;;;1.35;;
62554;SDS011;48610;52.144;8.624;2022-07-10T12:01:01;4.05;;;1.23;;
62554;SDS011;48610;52.144;8.624;2022-07-10T12:04:07;3.70;;;1.27;;
62554;SDS011;48610;52.144;8.624;2022-07-10T12:07:09;2.33;;;1.13;;
62554;SDS011;48610;52.144;8.624;2022-07-10T12:10:10;1.65;;;1.05;;
62554;SDS011;48610;52.144;8.624;2022-07-10T12:13:12;2.00;;;0.93;;
62554;SDS011;48610;52.144;8.624;2022-07-10T12:16:13;2.65;;;1.00;;
62554;SDS011;48610;52.144;8.624;2022-07-10T12:19:15;2.60;;;0.95;;
62554;SDS011;48610;52.144;8.624;2022-07-10T12:22:17;1.33;;;0.80;;
62554;SDS011;48610;52.144;8.624;2022-07-10T12:25:18;2.67;;;0.80;;
62554;SDS011;48610;52.144;8.624;2022-07-10T12:28:19;2.47;;;1.25;;
62554;SDS011;48610;52.144;8.624;2022-07-10T12:31:20;4.38;;;0.88;;
62554;SDS011;48610;52.144;8.624;2022-07-10T12:34:37;2.85;;;1.02;;
62554;SDS011;48610;52.144;8.624;2022-07-10T12:37:50;8.40;;;1.63;;
62554;SDS011;48610;52.144;8.624;2022-07-10T12:40:51;2.70;;;0.88;;
62554;SDS011;48610;52.144;8.624;2022-07-10T12:44:08;3.60;;;0.98;;
62554;SDS011;48610;52.144;8.624;2022-07-10T12:47:10;1.52;;;0.85;;
62554;SDS011;48610;52.144;8.624;2022-07-10T12:50:13;4.35;;;1.20;;
62554;SDS011;48610;52.144;8.624;2022-07-10T12:53:16;2.50;;;1.05;;
62554;SDS011;48610;52.144;8.624;2022-07-10T13:00:02;1.23;;;0.80;;
62554;SDS011;48610;52.144;8.624;2022-07-10T13:03:05;3.15;;;0.95;;
62554;SDS011;48610;52.144;8.624;2022-07-10T13:06:24;6.40;;;1.55;;
62554;SDS011;48610;52.144;8.624;2022-07-10T13:09:29;1.92;;;0.93;;
62554;SDS011;48610;52.144;8.624;2022-07-10T13:12:29;2.40;;;0.93;;
62554;SDS011;48610;52.144;8.624;2022-07-10T13:15:30;2.92;;;1.17;;
62554;SDS011;48610;52.144;8.624;2022-07-10T13:18:31;4.90;;;1.70;;
62554;SDS011;48610;52.144;8.624;2022-07-10T13:21:31;3.90;;;1.20;;
62554;SDS011;48610;52.144;8.624;2022-07-10T13:24:32;4.05;;;1.30;;
62554;SDS011;48610;52.144;8.624;2022-07-10T13:27:34;4.20;;;1.45;;
62554;SDS011;48610;52.144;8.624;2022-07-10T13:30:36;5.03;;;1.13;;
62554;SDS011;48610;52.144;8.624;2022-07-10T13:33:37;1.02;;;0.73;;
62554;SDS011;48610;52.144;8.624;2022-07-10T13:36:38;4.20;;;1.00;;
62554;SDS011;48610;52.144;8.624;2022-07-10T13:39:38;3.00;;;1.02;;
62554;SDS011;48610;52.144;8.624;2022-07-10T13:42:39;1.00;;;0.63;;
62554;SDS011;48610;52.144;8.624;2022-07-10T13:45:39;2.03;;;0.93;;
62554;SDS011;48610;52.144;8.624;2022-07-10T13:48:43;2.65;;;0.60;;
62554;SDS011;48610;52.144;8.624;2022-07-10T13:51:44;1.13;;;0.80;;
62554;SDS011;48610;52.144;8.624;2022-07-10T13:54:44;2.47;;;0.95;;
62554;SDS011;48610;52.144;8.624;2022-07-10T13:57:45;2.35;;;0.93;;
62554;SDS011;48610;52.144;8.624;2022-07-10T14:00:46;1.30;;;0.70;;
62554;SDS011;48610;52.144;8.624;2022-07-10T14:03:46;3.00;;;0.65;;
62554;SDS011;48610;52.144;8.624;2022-07-10T14:06:47;3.58;;;1.17;;
62554;SDS011;48610;52.144;8.624;2022-07-10T14:09:48;1.85;;;0.88;;
62554;SDS011;48610;52.144;8.624;2022-07-10T14:12:49;1.65;;;0.68;;
62554;SDS011;48610;52.144;8.624;2022-07-10T14:15:51;5.05;;;1.00;;
62554;SDS011;48610;52.144;8.624;2022-07-10T14:18:52;1.30;;;0.75;;
62554;SDS011;48610;52.144;8.624;2022-07-10T14:21:54;1.30;;;0.93;;
62554;SDS011;48610;52.144;8.624;2022-07-10T14:24:57;2.83;;;1.15;;
62554;SDS011;48610;52.144;8.624;2022-07-10T14:28:00;2.47;;;0.70;;
62554;SDS011;48610;52.144;8.624;2022-07-10T14:31:01;1.13;;;0.70;;
62554;SDS011;48610;52.144;8.624;2022-07-10T14:34:03;1.27;;;0.77;;
62554;SDS011;48610;52.144;8.624;2022-07-10T14:37:04;0.52;;;0.52;;
62554;SDS011;48610;52.144;8.624;2022-07-10T14:40:05;1.13;;;1.00;;
62554;SDS011;48610;52.144;8.624;2022-07-10T14:43:06;1.30;;;0.88;;
62554;SDS011;48610;52.144;8.624;2022-07-10T14:46:07;2.08;;;0.90;;
62554;SDS011;48610;52.144;8.624;2022-07-10T14:49:08;4.63;;;0.82;;
62554;SDS011;48610;52.144;8.624;2022-07-10T14:52:09;3.33;;;0.98;;
62554;SDS011;48610;52.144;8.624;2022-07-10T14:55:10;1.80;;;1.33;;
62554;SDS011;48610;52.144;8.624;2022-07-10T14:58:10;0.95;;;0.80;;
62554;SDS011;48610;52.144;8.624;2022-07-10T15:01:11;1.15;;;0.77;;
62554;SDS011;48610;52.144;8.624;2022-07-10T15:04:12;1.15;;;0.77;;
62554;SDS011;48610;52.144;8.624;2022-07-10T15:07:13;2.13;;;0.98;;
62554;SDS011;48610;52.144;8.624;2022-07-10T15:10:17;2.37;;;0.80;;
62554;SDS011;48610;52.144;8.624;2022-07-10T15:13:19;1.67;;;0.98;;
62554;SDS011;48610;52.144;8.624;2022-07-10T15:16:20;0.75;;;0.63;;
62554;SDS011;48610;52.144;8.624;2022-07-10T15:19:20;3.70;;;0.77;;
62554;SDS011;48610;52.144;8.624;2022-07-10T15:22:21;2.03;;;1.58;;
62554;SDS011;48610;52.144;8.624;2022-07-10T15:25:22;3.28;;;1.92;;
62554;SDS011;48610;52.144;8.624;2022-07-10T15:28:22;4.18;;;1.75;;
62554;SDS011;48610;52.144;8.624;2022-07-10T15:31:23;9.50;;;6.38;;
62554;SDS011;48610;52.144;8.624;2022-07-10T15:34:23;2.40;;;1.77;;
62554;SDS011;48610;52.144;8.624;2022-07-10T15:37:24;8.20;;;1.00;;
62554;SDS011;48610;52.144;8.624;2022-07-10T15:40:28;2.65;;;1.20;;
62554;SDS011;48610;52.144;8.624;2022-07-10T15:43:29;2.13;;;0.83;;
62554;SDS011;48610;52.144;8.624;2022-07-10T15:46:30;1.92;;;1.00;;
62554;SDS011;48610;52.144;8.624;2022-07-10T15:49:31;3.70;;;1.13;;
62554;SDS011;48610;52.144;8.624;2022-07-10T15:52:31;1.77;;;0.90;;
62554;SDS011;48610;52.144;8.624;2022-07-10T15:55:32;1.35;;;1.10;;
62554;SDS011;48610;52.144;8.624;2022-07-10T15:58:33;1.30;;;0.82;;
62554;SDS011;48610;52.144;8.624;2022-07-10T16:01:33;0.80;;;0.70;;
62554;SDS011;48610;52.144;8.624;2022-07-10T16:04:34;2.30;;;1.00;;
62554;SDS011;48610;52.144;8.624;2022-07-10T16:07:34;2.70;;;0.73;;
62554;SDS011;48610;52.144;8.624;2022-07-10T16:10:35;1.02;;;0.65;;
62554;SDS011;48610;52.144;8.624;2022-07-10T16:13:36;1.30;;;0.73;;
62554;SDS011;48610;52.144;8.624;2022-07-10T16:16:36;0.95;;;0.52;;
62554;SDS011;48610;52.144;8.624;2022-07-10T16:19:38;1.17;;;0.73;;
62554;SDS011;48610;52.144;8.624;2022-07-10T16:22:38;3.72;;;0.77;;
62554;SDS011;48610;52.144;8.624;2022-07-10T16:25:39;3.25;;;1.10;;
62554;SDS011;48610;52.144;8.624;2022-07-10T16:28:59;1.75;;;0.90;;
62554;SDS011;48610;52.144;8.624;2022-07-10T16:32:00;1.27;;;0.82;;
62554;SDS011;48610;52.144;8.624;2022-07-10T16:35:00;1.33;;;0.82;;
62554;SDS011;48610;52.144;8.624;2022-07-10T16:38:02;2.55;;;0.63;;
62554;SDS011;48610;52.144;8.624;2022-07-10T16:41:02;1.50;;;0.93;;
62554;SDS011;48610;52.144;8.624;2022-07-10T16:44:03;0.70;;;0.50;;
62554;SDS011;48610;52.144;8.624;2022-07-10T16:47:05;2.75;;;0.95;;
62554;SDS011;48610;52.144;8.624;2022-07-10T16:50:05;1.23;;;0.90;;
62554;SDS011;48610;52.144;8.624;2022-07-10T16:53:06;1.58;;;0.73;;
62554;SDS011;48610;52.144;8.624;2022-07-10T16:56:07;5.30;;;1.23;;
62554;SDS011;48610;52.144;8.624;2022-07-10T16:59:08;0.90;;;0.90;;
62554;SDS011;48610;52.144;8.624;2022-07-10T17:02:09;3.22;;;1.08;;
62554;SDS011;48610;52.144;8.624;2022-07-10T17:05:09;1.67;;;0.93;;
62554;SDS011;48610;52.144;8.624;2022-07-10T17:08:10;1.20;;;1.10;;
62554;SDS011;48610;52.144;8.624;2022-07-10T17:11:13;1.60;;;1.30;;
62554;SDS011;48610;52.144;8.624;2022-07-10T17:14:14;2.05;;;1.15;;
62554;SDS011;48610;52.144;8.624;2022-07-10T17:17:14;3.28;;;1.35;;
62554;SDS011;48610;52.144;8.624;2022-07-10T17:20:15;0.90;;;0.75;;
62554;SDS011;48610;52.144;8.624;2022-07-10T17:23:16;1.25;;;0.80;;
62554;SDS011;48610;52.144;8.624;2022-07-10T17:26:17;0.90;;;0.90;;
62554;SDS011;48610;52.144;8.624;2022-07-10T17:29:17;0.95;;;0.80;;
62554;SDS011;48610;52.144;8.624;2022-07-10T17:32:18;2.60;;;0.98;;
62554;SDS011;48610;52.144;8.624;2022-07-10T17:35:19;2.05;;;1.02;;
62554;SDS011;48610;52.144;8.624;2022-07-10T17:38:20;1.27;;;0.68;;
62554;SDS011;48610;52.144;8.624;2022-07-10T17:41:23;0.82;;;0.73;;
62554;SDS011;48610;52.144;8.624;2022-07-10T17:44:24;0.90;;;0.90;;
62554;SDS011;48610;52.144;8.624;2022-07-10T17:47:25;1.10;;;1.00;;
62554;SDS011;48610;52.144;8.624;2022-07-10T17:50:25;0.90;;;0.90;;
62554;SDS011;48610;52.144;8.624;2022-07-10T17:53:27;1.70;;;0.85;;
62554;SDS011;48610;52.144;8.624;2022-07-10T17:56:28;1.88;;;0.93;;
62554;SDS011;48610;52.144;8.624;2022-07-10T17:59:29;2.03;;;1.38;;
62554;SDS011;48610;52.144;8.624;2022-07-10T18:02:30;2.80;;;1.35;;
62554;SDS011;48610;52.144;8.624;2022-07-10T18:05:30;2.17;;;1.52;;
62554;SDS011;48610;52.144;8.624;2022-07-10T18:08:31;1.77;;;1.40;;
62554;SDS011;48610;52.144;8.624;2022-07-10T18:11:33;5.82;;;1.30;;
62554;SDS011;48610;52.144;8.624;2022-07-10T18:14:33;2.00;;;1.27;;
62554;SDS011;48610;52.144;8.624;2022-07-10T18:17:34;1.88;;;1.55;;
62554;SDS011;48610;52.144;8.624;2022-07-10T18:20:35;1.95;;;1.65;;
62554;SDS011;48610;52.144;8.624;2022-07-10T18:23:37;1.95;;;1.00;;
62554;SDS011;48610;52.144;8.624;2022-07-10T18:26:39;1.42;;;1.30;;
62554;SDS011;48610;52.144;8.624;2022-07-10T18:29:39;3.15;;;1.40;;
62554;SDS011;48610;52.144;8.624;2022-07-10T18:32:40;1.08;;;0.93;;
62554;SDS011;48610;52.144;8.624;2022-07-10T18:35:59;2.25;;;1.10;;
62554;SDS011;48610;52.144;8.624;2022-07-10T18:39:03;6.10;;;2.15;;